createdAt,value
2018-07-19T00:01:22.091Z,49.52
2018-07-19T00:06:14.812Z,49.72
2018-07-19T00:11:07.353Z,49.66
2018-07-19T00:15:59.881Z,50.39
2018-07-19T00:20:53.160Z,50.11
2018-07-19T00:25:45.636Z,50.33
2018-07-19T00:30:38.198Z,49.79
2018-07-19T00:35:30.843Z,49.99
2018-07-19T00:40:23.696Z,50.98
2018-07-19T00:45:16.397Z,50.81
2018-07-19T00:50:08.970Z,51.05
2018-07-19T00:55:01.572Z,51.36
2018-07-19T00:59:54.141Z,51.45
2018-07-19T01:04:46.767Z,51.36
2018-07-19T01:09:39.327Z,51.64
2018-07-19T01:14:31.926Z,51.84
2018-07-19T01:19:24.574Z,51.55
2018-07-19T01:24:17.158Z,51.47
2018-07-19T01:29:09.744Z,52.54
2018-07-19T01:34:02.343Z,52.22
2018-07-19T01:38:54.931Z,53.10
2018-07-19T01:43:47.518Z,53.12
2018-07-19T01:48:40.071Z,52.89
2018-07-19T01:53:32.658Z,52.83
2018-07-19T01:58:25.266Z,53.46
2018-07-19T02:03:17.867Z,53.82
2018-07-19T02:08:10.452Z,53.51
2018-07-19T02:13:03.037Z,54.30
2018-07-19T02:17:55.621Z,54.15
2018-07-19T02:22:48.189Z,54.81
2018-07-19T02:27:40.817Z,54.89
2018-07-19T02:32:33.416Z,55.00
2018-07-19T02:37:26.304Z,55.54
2018-07-19T02:42:18.927Z,55.04
2018-07-19T02:47:11.828Z,55.23
2018-07-19T02:52:04.416Z,55.14
2018-07-19T02:56:57.018Z,55.28
2018-07-19T03:01:49.648Z,56.25
2018-07-19T03:06:42.221Z,55.71
2018-07-19T03:11:35.013Z,56.03
2018-07-19T03:16:27.655Z,56.61
2018-07-19T03:21:20.257Z,56.42
2018-07-19T03:26:12.826Z,56.51
2018-07-19T03:31:05.506Z,56.61
2018-07-19T03:35:58.023Z,56.52
2018-07-19T03:40:50.554Z,56.97
2018-07-19T03:45:43.118Z,56.65
2018-07-19T03:50:35.841Z,57.25
2018-07-19T03:55:28.404Z,56.78
2018-07-19T04:00:20.994Z,57.90
2018-07-19T04:05:13.605Z,57.42
2018-07-19T04:10:06.298Z,57.55
2018-07-19T04:14:58.869Z,58.28
2018-07-19T04:19:51.447Z,58.38
2018-07-19T04:24:44.113Z,58.22
2018-07-19T04:29:36.751Z,58.63
2018-07-19T04:34:29.459Z,58.36
2018-07-19T04:39:22.174Z,58.53
2018-07-19T04:44:14.677Z,58.59
2018-07-19T04:49:07.217Z,58.42
2018-07-19T04:53:59.751Z,59.00
2018-07-19T04:58:52.482Z,58.83
2018-07-19T05:03:45.163Z,59.53
2018-07-19T05:08:38.012Z,59.30
2018-07-19T05:13:30.878Z,59.02
2018-07-19T05:18:23.502Z,59.99
2018-07-19T05:23:16.204Z,59.27
2018-07-19T05:28:08.748Z,59.60
2018-07-19T05:33:01.408Z,59.30
2018-07-19T05:37:53.950Z,60.28
2018-07-19T05:42:46.575Z,59.69
2018-07-19T05:47:39.222Z,59.78
2018-07-19T05:52:31.826Z,59.88
2018-07-19T05:57:24.417Z,60.58
2018-07-19T06:02:16.954Z,59.95
2018-07-19T06:07:09.496Z,60.05
2018-07-19T06:12:02.315Z,60.79
2018-07-19T06:16:54.844Z,60.79
2018-07-19T06:21:47.442Z,60.24
2018-07-19T06:26:40.106Z,60.90
2018-07-19T06:31:32.765Z,60.87
2018-07-19T06:36:25.301Z,60.74
2018-07-19T06:41:17.984Z,60.30
2018-07-19T06:46:10.581Z,60.68
2018-07-19T06:51:03.336Z,60.34
2018-07-19T06:55:55.936Z,60.74
2018-07-19T07:00:48.642Z,61.04
2018-07-19T07:05:41.190Z,61.07
2018-07-19T07:10:33.841Z,60.96
2018-07-19T07:15:26.578Z,60.67
2018-07-19T07:20:19.290Z,60.59
2018-07-19T07:25:11.953Z,60.95
2018-07-19T07:30:05.227Z,61.28
2018-07-19T07:34:57.789Z,61.58
2018-07-19T07:39:50.394Z,60.86
2018-07-19T07:44:42.938Z,61.71
2018-07-19T07:49:35.631Z,61.30
2018-07-19T07:54:28.304Z,61.34
2018-07-19T07:59:20.935Z,60.80
2018-07-19T08:04:13.476Z,61.67
2018-07-19T08:09:07.114Z,60.42
2018-07-19T08:13:59.714Z,61.01
2018-07-19T08:18:52.292Z,60.84
2018-07-19T08:23:45.018Z,60.62
2018-07-19T08:28:37.617Z,60.41
2018-07-19T08:33:30.182Z,60.21
2018-07-19T08:38:22.781Z,60.23
2018-07-19T08:43:15.483Z,60.39
2018-07-19T08:48:08.094Z,60.09
2018-07-19T08:53:00.697Z,60.84
2018-07-19T08:57:53.448Z,60.65
2018-07-19T09:02:46.140Z,60.52
2018-07-19T09:07:39.370Z,60.30
2018-07-19T09:12:32.027Z,60.41
2018-07-19T09:17:24.541Z,60.40
2018-07-19T09:22:17.234Z,59.98
2018-07-19T09:27:09.878Z,59.49
2018-07-19T09:32:02.479Z,59.92
2018-07-19T09:36:55.151Z,58.79
2018-07-19T09:41:47.748Z,59.49
2018-07-19T09:46:40.303Z,59.59
2018-07-19T09:51:33.105Z,58.63
2018-07-19T09:56:25.762Z,59.28
2018-07-19T10:01:19.687Z,58.25
2018-07-19T10:06:12.426Z,58.28
2018-07-19T10:11:05.104Z,58.71
2018-07-19T10:15:57.817Z,57.70
2018-07-19T10:20:50.512Z,58.04
2018-07-19T10:25:43.155Z,57.36
2018-07-19T10:30:35.762Z,57.76
2018-07-19T10:35:28.445Z,57.57
2018-07-19T10:40:21.239Z,58.05
2018-07-19T10:45:13.971Z,57.17
2018-07-19T10:50:06.670Z,56.97
2018-07-19T10:54:59.225Z,56.76
2018-07-19T10:59:51.753Z,56.73
2018-07-19T11:04:44.436Z,56.53
2018-07-19T11:09:37.156Z,56.23
2018-07-19T11:14:29.747Z,56.13
2018-07-19T11:19:22.486Z,55.34
2018-07-19T11:24:15.145Z,54.91
2018-07-19T11:29:07.802Z,54.88
2018-07-19T11:34:00.407Z,53.67
2018-07-19T11:38:53.243Z,53.95
2018-07-19T11:43:45.815Z,54.38
2018-07-19T11:48:38.413Z,54.24
2018-07-19T11:53:31.039Z,53.96
2018-07-19T11:58:23.692Z,53.20
2018-07-19T12:03:16.354Z,53.82
2018-07-19T12:08:08.913Z,52.86
2018-07-19T12:13:01.543Z,53.23
2018-07-19T12:17:54.303Z,52.34
2018-07-19T12:22:47.074Z,52.20
2018-07-19T12:27:39.646Z,52.42
2018-07-19T12:32:32.220Z,52.47
2018-07-19T12:37:24.911Z,52.17
2018-07-19T12:42:17.748Z,51.54
2018-07-19T12:47:10.406Z,51.35
2018-07-19T12:52:03.147Z,50.47
2018-07-19T12:56:55.830Z,50.32
2018-07-19T13:01:48.343Z,50.76
2018-07-19T13:06:40.935Z,49.85
2018-07-19T13:11:33.672Z,49.93
2018-07-19T13:16:26.293Z,49.48
2018-07-19T13:21:19.182Z,49.36
2018-07-19T13:26:11.770Z,50.01
2018-07-19T13:31:04.510Z,49.24
2018-07-19T13:35:57.905Z,49.13
2018-07-19T13:40:51.072Z,48.92
2018-07-19T13:45:43.783Z,49.21
2018-07-19T13:50:36.543Z,48.32
2018-07-19T13:55:29.093Z,48.75
2018-07-19T14:00:21.611Z,48.08
2018-07-19T14:05:14.263Z,47.87
2018-07-19T14:10:06.946Z,47.96
2018-07-19T14:14:59.500Z,47.58
2018-07-19T14:19:52.106Z,46.84
2018-07-19T14:24:44.730Z,47.67
2018-07-19T14:29:37.443Z,46.16
2018-07-19T14:34:30.195Z,46.31
2018-07-19T14:39:22.794Z,45.69
2018-07-19T14:44:15.427Z,45.19
2018-07-19T14:49:08.065Z,44.86
2018-07-19T14:54:00.822Z,44.45
2018-07-19T14:58:53.376Z,44.21
2018-07-19T15:03:46.202Z,43.99
2018-07-19T15:08:38.965Z,43.61
2018-07-19T15:13:31.740Z,43.48
2018-07-19T15:18:24.365Z,43.15
2018-07-19T15:23:16.990Z,42.73
2018-07-19T15:28:09.538Z,42.49
2018-07-19T15:33:02.250Z,42.65
2018-07-19T15:37:54.847Z,41.92
2018-07-19T15:42:47.396Z,41.97
2018-07-19T15:47:40.027Z,40.79
2018-07-19T15:52:32.624Z,40.56
2018-07-19T15:57:25.302Z,40.07
2018-07-19T16:02:18.018Z,39.37
2018-07-19T16:07:10.911Z,39.06
2018-07-19T16:12:03.463Z,38.52
2018-07-19T16:16:55.996Z,38.78
2018-07-19T16:21:48.562Z,38.51
2018-07-19T16:26:41.303Z,39.17
2018-07-19T16:31:33.834Z,39.46
2018-07-19T16:36:26.462Z,39.90
2018-07-19T16:41:19.031Z,40.40
2018-07-19T16:46:11.660Z,40.41
2018-07-19T16:51:04.215Z,39.81
2018-07-19T16:55:56.800Z,39.44
2018-07-19T17:00:49.346Z,40.43
2018-07-19T17:05:41.883Z,39.28
2018-07-19T17:10:34.505Z,38.97
2018-07-19T17:15:27.066Z,39.06
2018-07-19T17:20:19.715Z,39.02
2018-07-19T17:25:12.388Z,38.35
2018-07-19T17:30:05.627Z,38.28
2018-07-19T17:34:58.315Z,39.06
2018-07-19T17:39:50.976Z,38.78
2018-07-19T17:44:43.695Z,38.09
2018-07-19T17:49:36.572Z,37.67
2018-07-19T17:54:29.204Z,37.79
2018-07-19T17:59:21.951Z,38.66
2018-07-19T18:04:14.519Z,38.70
2018-07-19T18:09:08.821Z,38.46
2018-07-19T18:14:01.349Z,37.74
2018-07-19T18:18:54.082Z,38.46
2018-07-19T18:23:46.700Z,38.46
2018-07-19T18:28:39.336Z,38.39
2018-07-19T18:33:31.999Z,38.96
2018-07-19T18:38:24.618Z,38.37
2018-07-19T18:43:17.139Z,37.62
2018-07-19T18:48:09.642Z,38.23
2018-07-19T18:53:02.168Z,37.80
2018-07-19T18:57:54.848Z,38.54
2018-07-19T19:02:47.636Z,38.13
2018-07-19T19:07:40.368Z,37.73
2018-07-19T19:12:32.937Z,38.37
2018-07-19T19:17:25.490Z,37.88
2018-07-19T19:22:18.106Z,37.79
2018-07-19T19:27:10.694Z,37.78
2018-07-19T19:32:03.395Z,37.73
2018-07-19T19:36:56.069Z,38.69
2018-07-19T19:41:48.605Z,37.98
2018-07-19T19:46:41.156Z,38.85
2018-07-19T19:51:33.750Z,38.48
2018-07-19T19:56:26.333Z,39.45
2018-07-19T20:01:19.020Z,39.54
2018-07-19T20:06:11.542Z,39.28
2018-07-19T20:11:04.109Z,39.60
2018-07-19T20:15:56.657Z,40.24
2018-07-19T20:20:49.120Z,40.52
2018-07-19T20:25:41.690Z,40.61
2018-07-19T20:30:34.211Z,41.25
2018-07-19T20:35:26.951Z,41.29
2018-07-19T20:40:19.592Z,41.54
2018-07-19T20:45:12.073Z,41.88
2018-07-19T20:50:04.658Z,41.33
2018-07-19T20:54:57.364Z,42.27
2018-07-19T20:59:49.935Z,41.94
2018-07-19T21:04:42.613Z,41.99
2018-07-19T21:09:35.202Z,42.26
2018-07-19T21:14:27.708Z,43.58
2018-07-19T21:19:20.382Z,43.82
2018-07-19T21:24:12.951Z,43.87
2018-07-19T21:29:05.645Z,44.08
2018-07-19T21:33:58.236Z,44.19
2018-07-19T21:38:50.866Z,43.61
2018-07-19T21:43:43.543Z,44.46
2018-07-19T21:48:36.223Z,44.17
2018-07-19T21:53:28.746Z,44.61
2018-07-19T21:58:21.319Z,44.67
2018-07-19T22:03:13.919Z,44.74
2018-07-19T22:08:06.629Z,44.36
2018-07-19T22:12:59.253Z,44.88
2018-07-19T22:17:51.851Z,44.58
2018-07-19T22:22:44.428Z,44.72
2018-07-19T22:27:36.978Z,45.17
2018-07-19T22:32:29.669Z,45.41
2018-07-19T22:37:22.319Z,45.13
2018-07-19T22:42:14.850Z,46.09
2018-07-19T22:47:07.426Z,46.14
2018-07-19T22:52:00.027Z,46.56
2018-07-19T22:56:52.679Z,46.46
2018-07-19T23:01:45.257Z,46.09
2018-07-19T23:06:37.782Z,46.91
2018-07-19T23:11:30.363Z,47.63
2018-07-19T23:16:22.918Z,46.80
2018-07-19T23:21:15.518Z,47.44
2018-07-19T23:26:08.022Z,48.05
2018-07-19T23:31:00.611Z,47.54
2018-07-19T23:35:58.451Z,48.39
2018-07-19T23:40:52.162Z,47.96
2018-07-19T23:45:52.276Z,48.74
2018-07-19T23:50:44.821Z,49.19
2018-07-19T23:55:37.374Z,48.27
